sensor_id;sensor_type;location;lat;lon;timestamp;pressure;altitude;pressure_sealevel;temperature;humidity
36788;BME280;22738;45.560;9.434;2022-09-25T00:01:59;99736.31;;;15.75;100.00
36788;BME280;22738;45.560;9.434;2022-09-25T00:08:40;99738.81;;;15.76;100.00
36788;BME280;22738;45.560;9.434;2022-09-25T00:15:21;99731.06;;;15.75;100.00
36788;BME280;22738;45.560;9.434;2022-09-25T00:22:02;99725.16;;;15.73;100.00
36788;BME280;22738;45.560;9.434;2022-09-25T00:28:43;99719.25;;;15.70;100.00
36788;BME280;22738;45.560;9.434;2022-09-25T00:35:24;99695.88;;;15.69;100.00
36788;BME280;22738;45.560;9.434;2022-09-25T00:42:05;99702.19;;;15.66;100.00
36788;BME280;22738;45.560;9.434;2022-09-25T00:55:34;99683.19;;;15.64;100.00
36788;BME280;22738;45.560;9.434;2022-09-25T01:02:23;99672.47;;;15.67;100.00
36788;BME280;22738;45.560;9.434;2022-09-25T01:09:05;99669.84;;;15.67;100.00
36788;BME280;22738;45.560;9.434;2022-09-25T01:16:17;99658.72;;;15.65;100.00
36788;BME280;22738;45.560;9.434;2022-09-25T01:30:13;99659.28;;;15.69;100.00
36788;BME280;22738;45.560;9.434;2022-09-25T01:36:59;99642.22;;;15.65;100.00
36788;BME280;22738;45.560;9.434;2022-09-25T01:43:50;99636.44;;;15.61;100.00
36788;BME280;22738;45.560;9.434;2022-09-25T01:50:38;99630.50;;;15.59;100.00
36788;BME280;22738;45.560;9.434;2022-09-25T01:57:25;99624.34;;;15.60;100.00
36788;BME280;22738;45.560;9.434;2022-09-25T02:04:12;99613.59;;;15.63;100.00
36788;BME280;22738;45.560;9.434;2022-09-25T02:10:59;99604.94;;;15.73;100.00
36788;BME280;22738;45.560;9.434;2022-09-25T02:17:45;99598.78;;;15.74;100.00
36788;BME280;22738;45.560;9.434;2022-09-25T02:24:52;99598.78;;;15.74;100.00
36788;BME280;22738;45.560;9.434;2022-09-25T02:38:27;99604.25;;;15.70;100.00
36788;BME280;22738;45.560;9.434;2022-09-25T02:52:21;99577.84;;;15.64;100.00
36788;BME280;22738;45.560;9.434;2022-09-25T02:59:13;99567.81;;;15.59;100.00
36788;BME280;22738;45.560;9.434;2022-09-25T03:05:55;99570.69;;;15.56;100.00
36788;BME280;22738;45.560;9.434;2022-09-25T03:12:37;99564.91;;;15.53;100.00
36788;BME280;22738;45.560;9.434;2022-09-25T03:19:18;99567.13;;;15.57;100.00
36788;BME280;22738;45.560;9.434;2022-09-25T03:26:02;99572.09;;;15.60;100.00
36788;BME280;22738;45.560;9.434;2022-09-25T03:32:44;99563.28;;;15.61;100.00
36788;BME280;22738;45.560;9.434;2022-09-25T03:39:25;99568.25;;;15.64;100.00
36788;BME280;22738;45.560;9.434;2022-09-25T03:46:09;99570.44;;;15.59;100.00
36788;BME280;22738;45.560;9.434;2022-09-25T03:52:50;99572.19;;;15.59;100.00
36788;BME280;22738;45.560;9.434;2022-09-25T03:59:33;99549.25;;;15.62;100.00
36788;BME280;22738;45.560;9.434;2022-09-25T04:06:19;99566.56;;;15.63;100.00
36788;BME280;22738;45.560;9.434;2022-09-25T04:13:00;99555.28;;;15.63;100.00
36788;BME280;22738;45.560;9.434;2022-09-25T04:19:41;99552.25;;;15.67;100.00
36788;BME280;22738;45.560;9.434;2022-09-25T04:26:22;99555.28;;;15.63;100.00
36788;BME280;22738;45.560;9.434;2022-09-25T04:33:03;99565.19;;;15.59;100.00
36788;BME280;22738;45.560;9.434;2022-09-25T04:40:03;99566.03;;;15.60;100.00
36788;BME280;22738;45.560;9.434;2022-09-25T04:46:44;99565.47;;;15.56;100.00
36788;BME280;22738;45.560;9.434;2022-09-25T04:53:27;99554.22;;;15.56;100.00
36788;BME280;22738;45.560;9.434;2022-09-25T05:00:09;99558.31;;;15.58;100.00
36788;BME280;22738;45.560;9.434;2022-09-25T05:06:51;99565.19;;;15.59;100.00
36788;BME280;22738;45.560;9.434;2022-09-25T05:13:32;99564.38;;;15.59;100.00
36788;BME280;22738;45.560;9.434;2022-09-25T05:20:15;99571.78;;;15.63;100.00
36788;BME280;22738;45.560;9.434;2022-09-25T05:26:57;99562.72;;;15.67;100.00
36788;BME280;22738;45.560;9.434;2022-09-25T05:33:38;99556.69;;;15.67;100.00
36788;BME280;22738;45.560;9.434;2022-09-25T05:40:21;99562.72;;;15.67;100.00
36788;BME280;22738;45.560;9.434;2022-09-25T05:47:03;99549.53;;;15.69;100.00
36788;BME280;22738;45.560;9.434;2022-09-25T05:53:44;99560.66;;;15.71;100.00
36788;BME280;22738;45.560;9.434;2022-09-25T06:00:26;99539.50;;;15.74;100.00
36788;BME280;22738;45.560;9.434;2022-09-25T06:07:09;99539.09;;;15.79;100.00
36788;BME280;22738;45.560;9.434;2022-09-25T06:13:50;99534.94;;;15.86;100.00
36788;BME280;22738;45.560;9.434;2022-09-25T06:20:34;99541.25;;;15.93;100.00
36788;BME280;22738;45.560;9.434;2022-09-25T06:27:15;99544.56;;;16.04;100.00
36788;BME280;22738;45.560;9.434;2022-09-25T06:33:56;99535.19;;;16.11;100.00
36788;BME280;22738;45.560;9.434;2022-09-25T06:40:37;99533.13;;;16.15;100.00
36788;BME280;22738;45.560;9.434;2022-09-25T06:47:20;99523.78;;;16.12;100.00
36788;BME280;22738;45.560;9.434;2022-09-25T06:54:01;99525.25;;;16.24;100.00
36788;BME280;22738;45.560;9.434;2022-09-25T07:00:47;99519.41;;;16.50;100.00
36788;BME280;22738;45.560;9.434;2022-09-25T07:07:28;99512.72;;;17.01;100.00
36788;BME280;22738;45.560;9.434;2022-09-25T07:14:09;99521.06;;;17.59;100.00
36788;BME280;22738;45.560;9.434;2022-09-25T07:20:51;99529.66;;;17.52;100.00
36788;BME280;22738;45.560;9.434;2022-09-25T07:27:32;99529.41;;;17.45;100.00
36788;BME280;22738;45.560;9.434;2022-09-25T07:34:13;99543.84;;;17.32;100.00
36788;BME280;22738;45.560;9.434;2022-09-25T07:40:55;99548.91;;;17.16;100.00
36788;BME280;22738;45.560;9.434;2022-09-25T07:47:37;99559.78;;;17.21;100.00
36788;BME280;22738;45.560;9.434;2022-09-25T07:54:18;99557.16;;;17.21;100.00
36788;BME280;22738;45.560;9.434;2022-09-25T08:01:01;99557.44;;;17.18;100.00
36788;BME280;22738;45.560;9.434;2022-09-25T08:07:42;99544.22;;;17.19;100.00
36788;BME280;22738;45.560;9.434;2022-09-25T08:14:23;99549.91;;;17.32;100.00
36788;BME280;22738;45.560;9.434;2022-09-25T08:21:05;99541.34;;;17.40;100.00
36788;BME280;22738;45.560;9.434;2022-09-25T08:27:46;99562.22;;;17.49;100.00
36788;BME280;22738;45.560;9.434;2022-09-25T08:34:27;99556.94;;;17.59;100.00
36788;BME280;22738;45.560;9.434;2022-09-25T08:47:56;99548.84;;;17.70;100.00
36788;BME280;22738;45.560;9.434;2022-09-25T08:54:56;99546.59;;;17.75;100.00
36788;BME280;22738;45.560;9.434;2022-09-25T09:01:47;99544.66;;;17.77;100.00
36788;BME280;22738;45.560;9.434;2022-09-25T09:08:34;99529.16;;;17.83;100.00
36788;BME280;22738;45.560;9.434;2022-09-25T09:22:25;99534.13;;;18.12;100.00
36788;BME280;22738;45.560;9.434;2022-09-25T09:36:14;99534.25;;;18.28;100.00
36788;BME280;22738;45.560;9.434;2022-09-25T09:49:47;99545.97;;;18.16;100.00
36788;BME280;22738;45.560;9.434;2022-09-25T09:56:32;99558.66;;;18.03;100.00
36788;BME280;22738;45.560;9.434;2022-09-25T10:03:27;99558.72;;;18.11;100.00
36788;BME280;22738;45.560;9.434;2022-09-25T10:10:14;99553.69;;;18.43;100.00
36788;BME280;22738;45.560;9.434;2022-09-25T10:16:56;99547.63;;;19.36;100.00
36788;BME280;22738;45.560;9.434;2022-09-25T10:23:38;99540.47;;;19.86;100.00
36788;BME280;22738;45.560;9.434;2022-09-25T10:30:20;99532.56;;;19.62;100.00
36788;BME280;22738;45.560;9.434;2022-09-25T10:37:14;99536.81;;;19.55;100.00
36788;BME280;22738;45.560;9.434;2022-09-25T10:44:01;99521.66;;;19.49;100.00
36788;BME280;22738;45.560;9.434;2022-09-25T10:50:43;99521.38;;;19.68;100.00
36788;BME280;22738;45.560;9.434;2022-09-25T10:57:33;99525.00;;;19.83;100.00
36788;BME280;22738;45.560;9.434;2022-09-25T11:04:29;99504.28;;;19.88;100.00
36788;BME280;22738;45.560;9.434;2022-09-25T11:11:12;99495.38;;;20.30;100.00
36788;BME280;22738;45.560;9.434;2022-09-25T11:17:55;99472.31;;;20.48;100.00
36788;BME280;22738;45.560;9.434;2022-09-25T11:31:40;99480.94;;;20.26;100.00
36788;BME280;22738;45.560;9.434;2022-09-25T11:46:00;99466.50;;;19.73;100.00
36788;BME280;22738;45.560;9.434;2022-09-25T11:52:53;99451.03;;;19.70;100.00
36788;BME280;22738;45.560;9.434;2022-09-25T11:59:42;99440.50;;;19.86;100.00
36788;BME280;22738;45.560;9.434;2022-09-25T12:13:45;99425.41;;;19.64;100.00
36788;BME280;22738;45.560;9.434;2022-09-25T12:20:40;99425.72;;;19.77;100.00
36788;BME280;22738;45.560;9.434;2022-09-25T12:34:53;99414.84;;;19.88;100.00
36788;BME280;22738;45.560;9.434;2022-09-25T12:41:46;99399.34;;;20.10;100.00
36788;BME280;22738;45.560;9.434;2022-09-25T12:48:35;99390.09;;;20.30;100.00
36788;BME280;22738;45.560;9.434;2022-09-25T12:55:26;99388.19;;;20.54;100.00
36788;BME280;22738;45.560;9.434;2022-09-25T13:15:50;99359.22;;;21.30;100.00
36788;BME280;22738;45.560;9.434;2022-09-25T13:22:39;99370.84;;;21.21;100.00
36788;BME280;22738;45.560;9.434;2022-09-25T13:29:32;99359.78;;;21.41;100.00
36788;BME280;22738;45.560;9.434;2022-09-25T13:43:19;99361.84;;;21.68;100.00
36788;BME280;22738;45.560;9.434;2022-09-25T13:56:50;99345.91;;;21.61;100.00
36788;BME280;22738;45.560;9.434;2022-09-25T14:10:18;99332.53;;;21.63;100.00
36788;BME280;22738;45.560;9.434;2022-09-25T14:16:59;99335.25;;;21.55;100.00
36788;BME280;22738;45.560;9.434;2022-09-25T14:30:30;99324.41;;;20.67;100.00
36788;BME280;22738;45.560;9.434;2022-09-25T14:51:08;99309.06;;;20.48;100.00
36788;BME280;22738;45.560;9.434;2022-09-25T14:57:50;99300.50;;;20.46;100.00
36788;BME280;22738;45.560;9.434;2022-09-25T15:04:32;99293.00;;;20.35;100.00
36788;BME280;22738;45.560;9.434;2022-09-25T15:11:16;99295.66;;;20.27;100.00
36788;BME280;22738;45.560;9.434;2022-09-25T15:17:57;99283.56;;;20.10;100.00
36788;BME280;22738;45.560;9.434;2022-09-25T15:24:48;99284.91;;;19.98;100.00
36788;BME280;22738;45.560;9.434;2022-09-25T15:31:35;99285.34;;;19.78;100.00
36788;BME280;22738;45.560;9.434;2022-09-25T15:38:17;99280.13;;;19.62;100.00
36788;BME280;22738;45.560;9.434;2022-09-25T15:45:02;99282.78;;;19.46;100.00
36788;BME280;22738;45.560;9.434;2022-09-25T15:51:57;99288.03;;;19.22;100.00
36788;BME280;22738;45.560;9.434;2022-09-25T15:58:48;99286.41;;;19.05;100.00
36788;BME280;22738;45.560;9.434;2022-09-25T16:05:31;99289.03;;;18.97;100.00
36788;BME280;22738;45.560;9.434;2022-09-25T16:12:48;99279.53;;;18.96;100.00
36788;BME280;22738;45.560;9.434;2022-09-25T16:19:32;99277.38;;;18.91;100.00
36788;BME280;22738;45.560;9.434;2022-09-25T16:26:18;99287.41;;;18.80;100.00
36788;BME280;22738;45.560;9.434;2022-09-25T16:33:25;99295.91;;;18.66;100.00
36788;BME280;22738;45.560;9.434;2022-09-25T16:40:20;99290.00;;;18.56;100.00
36788;BME280;22738;45.560;9.434;2022-09-25T16:47:14;99292.63;;;18.56;100.00
36788;BME280;22738;45.560;9.434;2022-09-25T16:53:57;99290.63;;;18.49;100.00
36788;BME280;22738;45.560;9.434;2022-09-25T17:00:38;99290.63;;;18.49;100.00
36788;BME280;22738;45.560;9.434;2022-09-25T17:07:19;99291.94;;;18.45;100.00
36788;BME280;22738;45.560;9.434;2022-09-25T17:14:00;99287.13;;;18.41;100.00
36788;BME280;22738;45.560;9.434;2022-09-25T17:20:42;99295.50;;;18.36;100.00
36788;BME280;22738;45.560;9.434;2022-09-25T17:27:23;99296.94;;;18.31;100.00
36788;BME280;22738;45.560;9.434;2022-09-25T17:34:18;99289.72;;;18.25;100.00
36788;BME280;22738;45.560;9.434;2022-09-25T17:41:14;99293.66;;;18.21;100.00
36788;BME280;22738;45.560;9.434;2022-09-25T17:47:58;99303.59;;;18.09;100.00
36788;BME280;22738;45.560;9.434;2022-09-25T17:54:39;99316.00;;;17.91;100.00
36788;BME280;22738;45.560;9.434;2022-09-25T18:01:26;99326.44;;;17.83;100.00
36788;BME280;22738;45.560;9.434;2022-09-25T18:08:09;99327.72;;;17.79;100.00
36788;BME280;22738;45.560;9.434;2022-09-25T18:14:50;99332.56;;;17.66;100.00
36788;BME280;22738;45.560;9.434;2022-09-25T18:21:32;99325.03;;;17.45;100.00
36788;BME280;22738;45.560;9.434;2022-09-25T18:28:32;99322.16;;;17.31;100.00
36788;BME280;22738;45.560;9.434;2022-09-25T18:35:14;99336.69;;;17.07;100.00
36788;BME280;22738;45.560;9.434;2022-09-25T18:41:56;99343.22;;;17.03;100.00
36788;BME280;22738;45.560;9.434;2022-09-25T18:48:45;99343.66;;;16.99;100.00
36788;BME280;22738;45.560;9.434;2022-09-25T18:55:29;99344.03;;;16.86;100.00
36788;BME280;22738;45.560;9.434;2022-09-25T19:02:23;99344.63;;;16.80;100.00
36788;BME280;22738;45.560;9.434;2022-09-25T19:09:05;99338.63;;;16.70;100.00
36788;BME280;22738;45.560;9.434;2022-09-25T19:15:47;99346.19;;;16.56;100.00
36788;BME280;22738;45.560;9.434;2022-09-25T19:22:30;99363.34;;;16.31;100.00
36788;BME280;22738;45.560;9.434;2022-09-25T19:29:11;99378.53;;;16.27;100.00
36788;BME280;22738;45.560;9.434;2022-09-25T19:36:00;99379.38;;;16.18;100.00
36788;BME280;22738;45.560;9.434;2022-09-25T19:42:45;99386.56;;;16.16;100.00
36788;BME280;22738;45.560;9.434;2022-09-25T19:49:27;99381.84;;;16.20;100.00
36788;BME280;22738;45.560;9.434;2022-09-25T19:56:13;99372.25;;;16.11;100.00
36788;BME280;22738;45.560;9.434;2022-09-25T20:02:55;99377.91;;;16.06;100.00
36788;BME280;22738;45.560;9.434;2022-09-25T20:09:37;99374.50;;;16.06;100.00
36788;BME280;22738;45.560;9.434;2022-09-25T20:16:21;99364.03;;;16.06;100.00
36788;BME280;22738;45.560;9.434;2022-09-25T20:23:07;99361.06;;;15.91;100.00
36788;BME280;22738;45.560;9.434;2022-09-25T20:29:50;99365.19;;;15.84;100.00
36788;BME280;22738;45.560;9.434;2022-09-25T20:36:31;99375.66;;;15.75;100.00
36788;BME280;22738;45.560;9.434;2022-09-25T20:43:12;99387.66;;;15.67;100.00
36788;BME280;22738;45.560;9.434;2022-09-25T20:49:55;99378.19;;;15.57;100.00
36788;BME280;22738;45.560;9.434;2022-09-25T20:56:39;99387.00;;;15.37;100.00
36788;BME280;22738;45.560;9.434;2022-09-25T21:03:33;99382.59;;;15.28;100.00
36788;BME280;22738;45.560;9.434;2022-09-25T21:10:16;99385.38;;;15.26;100.00
36788;BME280;22738;45.560;9.434;2022-09-25T21:17:01;99378.75;;;15.32;100.00
36788;BME280;22738;45.560;9.434;2022-09-25T21:23:47;99377.00;;;15.51;100.00
36788;BME280;22738;45.560;9.434;2022-09-25T21:30:29;99361.72;;;15.37;100.00
36788;BME280;22738;45.560;9.434;2022-09-25T21:37:12;99360.03;;;15.36;100.00
36788;BME280;22738;45.560;9.434;2022-09-25T21:43:55;99368.88;;;15.35;100.00
36788;BME280;22738;45.560;9.434;2022-09-25T21:50:36;99352.94;;;15.19;100.00
36788;BME280;22738;45.560;9.434;2022-09-25T21:57:17;99369.13;;;15.23;100.00
36788;BME280;22738;45.560;9.434;2022-09-25T22:03:59;99367.63;;;15.20;100.00
36788;BME280;22738;45.560;9.434;2022-09-25T22:10:40;99370.22;;;15.20;100.00
36788;BME280;22738;45.560;9.434;2022-09-25T22:17:21;99363.22;;;15.11;100.00
36788;BME280;22738;45.560;9.434;2022-09-25T22:24:02;99351.72;;;14.94;100.00
36788;BME280;22738;45.560;9.434;2022-09-25T22:30:44;99348.38;;;15.02;100.00
36788;BME280;22738;45.560;9.434;2022-09-25T22:37:25;99345.78;;;15.02;100.00
36788;BME280;22738;45.560;9.434;2022-09-25T22:44:07;99343.19;;;14.83;100.00
36788;BME280;22738;45.560;9.434;2022-09-25T22:50:56;99337.81;;;14.56;100.00
36788;BME280;22738;45.560;9.434;2022-09-25T22:57:37;99329.00;;;14.57;100.00
36788;BME280;22738;45.560;9.434;2022-09-25T23:04:21;99332.59;;;14.56;100.00
36788;BME280;22738;45.560;9.434;2022-09-25T23:11:03;99331.50;;;14.18;100.00
36788;BME280;22738;45.560;9.434;2022-09-25T23:17:44;99316.81;;;14.27;100.00
36788;BME280;22738;45.560;9.434;2022-09-25T23:24:26;99309.69;;;14.29;100.00
36788;BME280;22738;45.560;9.434;2022-09-25T23:31:10;99311.06;;;14.23;100.00
36788;BME280;22738;45.560;9.434;2022-09-25T23:37:51;99304.88;;;14.24;100.00
36788;BME280;22738;45.560;9.434;2022-09-25T23:44:32;99294.00;;;14.00;100.00
36788;BME280;22738;45.560;9.434;2022-09-25T23:51:15;99295.38;;;14.04;100.00
36788;BME280;22738;45.560;9.434;2022-09-25T23:57:56;99291.25;;;13.92;100.00
